X  Schlie├čen METAR Luftfahrt Wetterdaten     EHKD De Kooy Airport
Temperatur
-2°C Temperatur
-3°C Taupunkt
93% Feuchtigkeit



Wind
3 KM/S
2 MPS
1 M/S
2 KTS



Kein Wind
N
Aktuelle Wetterlage

Nebel Nebel
Luftdruck 1009.82 (hPa) - 29.82 (inHg)
Sichtweite 4.3 (Meile) - 7 (Km)
Flughafen
Flughafen Code EHKD

Position : De Kooy Airport
Entfernung: 34 (Km)

Metar:
EHKD 020057Z AUTO VRB02KT 7000 BR FEW015CB SCT022 OVC053 M02/M03 Q1010 WHT

Zeit: 02-12-2023 01:57 CET